Ashfield, Pennsylvania
Current Conditions -  °F | °C
As of 9:24 AM on Monday 26 Jan 2015 (Local Time) from KABE Reporting Station
Light Snow Light Snow  
Wind Chill:   Ceiling: 3000
Heat Index: 19°   Visibility: 2.5mi
Dew Point: 12°   Wind: 16mph
Humidity: 74%   Direction: 60°ENE
Pressure: 29.95"   Gusts: NA
Location:  40.78°N, 75.71°W
Report Text: KABE 261424Z 06014KT 2 1/2SM -SN BKN030 OVC039 M07/M11 A2995 RMK AO2 SFC VIS 4 P0000
Loading
Personal Weather Stations






























Interactive Weather Map New forecast layout! Learn more

10-Day Weather Forecast

Advertisements
Track Severe Weather on mobile